Time,TemperatureF,DewpointF,PressureIn,WindDirection,WindDirectionDegrees,WindSpeedMPH,WindSpeedGustMPH,Humidity,HourlyPrecipIn,Conditions,Clouds,dailyrainin,SoftwareType,DateUTC
2013-05-06 00:00:00,68.0,40.0,30.08,WSW,250,1.0,-999.0,36,-99.99,,,-99.99,,2013-05-06 04:00:00,
2013-05-06 00:22:00,68.0,40.0,30.08,WSW,250,1.0,-999.0,36,-99.99,,,-99.99,,2013-05-06 04:22:00,
2013-05-06 00:32:00,68.0,40.0,30.08,WSW,250,1.0,-999.0,36,-99.99,,,-99.99,,2013-05-06 04:32:00,
2013-05-06 00:42:00,68.0,40.0,30.08,WSW,250,1.0,-999.0,36,-99.99,,,-99.99,,2013-05-06 04:42:00,
2013-05-06 00:52:00,68.0,40.0,30.08,WSW,250,1.0,-999.0,36,-99.99,,,-99.99,,2013-05-06 04:52:00,
2013-05-06 01:00:00,65.0,38.0,30.08,SSW,210,1.0,-999.0,37,-99.99,,,-99.99,,2013-05-06 05:00:00,
2013-05-06 01:21:00,65.0,38.0,30.08,SSW,210,1.0,-999.0,37,-99.99,,,-99.99,,2013-05-06 05:21:00,
2013-05-06 01:31:00,65.0,38.0,30.08,SSW,210,1.0,-999.0,37,-99.99,,,-99.99,,2013-05-06 05:31:00,
2013-05-06 01:42:00,65.0,38.0,30.08,SSW,210,1.0,-999.0,37,-99.99,,,-99.99,,2013-05-06 05:42:00,
2013-05-06 01:52:00,65.0,38.0,30.08,SSW,210,1.0,-999.0,37,-99.99,,,-99.99,,2013-05-06 05:52:00,
2013-05-06 02:00:00,63.0,39.0,30.09,SSW,210,2.0,-999.0,40,-99.99,,,-99.99,,2013-05-06 06:00:00,
2013-05-06 02:21:00,63.0,39.0,30.09,SSW,210,2.0,-999.0,40,-99.99,,,-99.99,,2013-05-06 06:21:00,
2013-05-06 02:31:00,63.0,39.0,30.09,SSW,210,2.0,-999.0,40,-99.99,,,-99.99,,2013-05-06 06:31:00,
2013-05-06 02:41:00,63.0,39.0,30.09,SSW,210,2.0,-999.0,40,-99.99,,,-99.99,,2013-05-06 06:41:00,
2013-05-06 02:51:00,63.0,39.0,30.09,SSW,210,2.0,-999.0,40,-99.99,,,-99.99,,2013-05-06 06:51:00,
2013-05-06 03:00:00,62.0,37.0,30.09,SSW,200,2.0,-999.0,39,-99.99,,,-99.99,,2013-05-06 07:00:00,
2013-05-06 03:22:00,62.0,37.0,30.09,SSW,200,2.0,-999.0,39,-99.99,,,-99.99,,2013-05-06 07:22:00,
2013-05-06 03:31:00,62.0,37.0,30.09,SSW,200,2.0,-999.0,39,-99.99,,,-99.99,,2013-05-06 07:31:00,
2013-05-06 03:41:00,62.0,37.0,30.09,SSW,200,2.0,-999.0,39,-99.99,,,-99.99,,2013-05-06 07:41:00,
2013-05-06 03:52:00,62.0,37.0,30.09,SSW,200,2.0,-999.0,39,-99.99,,,-99.99,,2013-05-06 07:52:00,
2013-05-06 05:00:00,59.0,37.0,30.10,SSW,200,1.0,-999.0,44,-99.99,,,-99.99,,2013-05-06 09:00:00,
2013-05-06 05:22:00,59.0,37.0,30.10,SSW,200,1.0,-999.0,44,-99.99,,,-99.99,,2013-05-06 09:22:00,
2013-05-06 05:32:00,59.0,37.0,30.10,SSW,200,1.0,-999.0,44,-99.99,,,-99.99,,2013-05-06 09:32:00,
2013-05-06 05:42:00,59.0,37.0,30.10,SSW,200,1.0,-999.0,44,-99.99,,,-99.99,,2013-05-06 09:42:00,
2013-05-06 05:53:00,59.0,37.0,30.10,SSW,200,1.0,-999.0,44,-99.99,,,-99.99,,2013-05-06 09:53:00,
2013-05-06 07:00:00,60.0,38.0,30.12,SSW,210,2.0,-999.0,44,-99.99,,,-99.99,,2013-05-06 11:00:00,
2013-05-06 07:21:00,60.0,38.0,30.12,SSW,210,2.0,-999.0,44,-99.99,,,-99.99,,2013-05-06 11:21:00,
2013-05-06 07:31:00,60.0,38.0,30.12,SSW,210,2.0,-999.0,44,-99.99,,,-99.99,,2013-05-06 11:31:00,
2013-05-06 07:41:00,60.0,38.0,30.12,SSW,210,2.0,-999.0,44,-99.99,,,-99.99,,2013-05-06 11:41:00,
2013-05-06 07:52:00,60.0,38.0,30.12,SSW,210,2.0,-999.0,44,-99.99,,,-99.99,,2013-05-06 11:52:00,
2013-05-06 08:00:00,63.0,39.0,30.13,SSW,200,3.0,-999.0,41,-99.99,,,-99.99,,2013-05-06 12:00:00,
2013-05-06 08:21:00,63.0,39.0,30.13,SSW,200,3.0,-999.0,41,-99.99,,,-99.99,,2013-05-06 12:21:00,
2013-05-06 08:31:00,63.0,39.0,30.13,SSW,200,3.0,-999.0,41,-99.99,,,-99.99,,2013-05-06 12:31:00,
2013-05-06 08:41:00,63.0,39.0,30.13,SSW,200,3.0,-999.0,41,-99.99,,,-99.99,,2013-05-06 12:41:00,
2013-05-06 08:51:00,63.0,39.0,30.13,SSW,200,3.0,-999.0,41,-99.99,,,-99.99,,2013-05-06 12:51:00,
2013-05-06 09:00:00,66.0,39.0,30.13,SSW,210,5.0,-999.0,37,-99.99,,,-99.99,,2013-05-06 13:00:00,
2013-05-06 09:21:00,66.0,39.0,30.13,SSW,210,5.0,-999.0,37,-99.99,,,-99.99,,2013-05-06 13:21:00,
2013-05-06 09:31:00,66.0,39.0,30.13,SSW,210,5.0,-999.0,37,-99.99,,,-99.99,,2013-05-06 13:31:00,
2013-05-06 09:42:00,66.0,39.0,30.13,SSW,210,5.0,-999.0,37,-99.99,,,-99.99,,2013-05-06 13:42:00,
2013-05-06 09:52:00,66.0,39.0,30.13,SSW,210,5.0,-999.0,37,-99.99,,,-99.99,,2013-05-06 13:52:00,
2013-05-06 10:00:00,70.0,40.0,30.12,SSW,200,3.0,-999.0,33,-99.99,,,-99.99,,2013-05-06 14:00:00,
2013-05-06 10:21:00,70.0,40.0,30.12,SSW,200,3.0,-999.0,33,-99.99,,,-99.99,,2013-05-06 14:21:00,
2013-05-06 10:32:00,70.0,40.0,30.12,SSW,200,3.0,-999.0,33,-99.99,,,-99.99,,2013-05-06 14:32:00,
2013-05-06 10:41:00,70.0,40.0,30.12,SSW,200,3.0,-999.0,33,-99.99,,,-99.99,,2013-05-06 14:41:00,
2013-05-06 10:51:00,70.0,40.0,30.12,SSW,200,3.0,-999.0,33,-99.99,,,-99.99,,2013-05-06 14:51:00,
2013-05-06 11:00:00,72.0,40.0,30.11,SSW,210,10.0,-999.0,30,-99.99,,,-99.99,,2013-05-06 15:00:00,
2013-05-06 11:21:00,72.0,40.0,30.11,SSW,210,10.0,-999.0,30,-99.99,,,-99.99,,2013-05-06 15:21:00,
2013-05-06 11:32:00,72.0,40.0,30.11,SSW,210,10.0,-999.0,30,-99.99,,,-99.99,,2013-05-06 15:32:00,
2013-05-06 11:42:00,72.0,40.0,30.11,SSW,210,10.0,-999.0,30,-99.99,,,-99.99,,2013-05-06 15:42:00,
2013-05-06 11:53:00,72.0,40.0,30.11,SSW,210,10.0,-999.0,30,-99.99,,,-99.99,,2013-05-06 15:53:00,
2013-05-06 12:00:00,70.0,37.0,30.09,SSW,200,15.0,-999.0,29,-99.99,,,-99.99,,2013-05-06 16:00:00,
2013-05-06 12:22:00,70.0,37.0,30.09,SSW,200,15.0,-999.0,29,-99.99,,,-99.99,,2013-05-06 16:22:00,
2013-05-06 12:32:00,70.0,37.0,30.09,SSW,200,15.0,-999.0,29,-99.99,,,-99.99,,2013-05-06 16:32:00,
2013-05-06 12:41:00,70.0,37.0,30.09,SSW,200,15.0,-999.0,29,-99.99,,,-99.99,,2013-05-06 16:41:00,
2013-05-06 12:52:00,70.0,37.0,30.09,SSW,200,15.0,-999.0,29,-99.99,,,-99.99,,2013-05-06 16:52:00,
2013-05-06 13:00:00,74.0,35.0,30.07,SW,230,18.0,-999.0,23,-99.99,,,-99.99,,2013-05-06 17:00:00,
2013-05-06 13:22:00,74.0,35.0,30.07,SW,230,18.0,-999.0,23,-99.99,,,-99.99,,2013-05-06 17:22:00,
2013-05-06 13:31:00,74.0,35.0,30.07,SW,230,18.0,-999.0,23,-99.99,,,-99.99,,2013-05-06 17:31:00,
2013-05-06 13:42:00,74.0,35.0,30.07,SW,230,18.0,-999.0,23,-99.99,,,-99.99,,2013-05-06 17:42:00,
2013-05-06 13:52:00,74.0,35.0,30.07,SW,230,18.0,-999.0,23,-99.99,,,-99.99,,2013-05-06 17:52:00,
2013-05-06 14:00:00,76.0,36.0,30.06,SSW,200,9.0,-999.0,23,-99.99,,,-99.99,,2013-05-06 18:00:00,
2013-05-06 14:21:00,76.0,36.0,30.06,SSW,200,9.0,-999.0,23,-99.99,,,-99.99,,2013-05-06 18:21:00,
2013-05-06 14:31:00,76.0,36.0,30.06,SSW,200,9.0,-999.0,23,-99.99,,,-99.99,,2013-05-06 18:31:00,
2013-05-06 14:42:00,76.0,36.0,30.06,SSW,200,9.0,-999.0,23,-99.99,,,-99.99,,2013-05-06 18:42:00,
2013-05-06 14:52:00,76.0,36.0,30.06,SSW,200,9.0,-999.0,23,-99.99,,,-99.99,,2013-05-06 18:52:00,
2013-05-06 15:00:00,78.0,30.0,30.05,SW,220,11.0,-999.0,17,-99.99,,,-99.99,,2013-05-06 19:00:00,
2013-05-06 15:21:00,78.0,30.0,30.05,SW,220,11.0,-999.0,17,-99.99,,,-99.99,,2013-05-06 19:21:00,
2013-05-06 15:32:00,78.0,30.0,30.05,SW,220,11.0,-999.0,17,-99.99,,,-99.99,,2013-05-06 19:32:00,
2013-05-06 15:41:00,78.0,30.0,30.05,SW,220,11.0,-999.0,17,-99.99,,,-99.99,,2013-05-06 19:41:00,
2013-05-06 15:52:00,78.0,30.0,30.05,SW,220,11.0,-999.0,17,-99.99,,,-99.99,,2013-05-06 19:52:00,
2013-05-06 21:21:00,75.0,30.0,-100.00,South,170,9.0,-999.0,19,-99.99,,,-99.99,,2013-05-07 01:21:00,
2013-05-06 21:31:00,75.0,30.0,-100.00,South,170,9.0,-999.0,19,-99.99,,,-99.99,,2013-05-07 01:31:00,
2013-05-06 22:21:00,73.0,31.0,-100.00,SSE,160,8.0,-999.0,20,-99.99,,,-99.99,,2013-05-07 02:21:00,
2013-05-06 22:31:00,73.0,31.0,-100.00,SSE,160,8.0,-999.0,20,-99.99,,,-99.99,,2013-05-07 02:31:00,
2013-05-06 23:00:00,69.0,34.0,-100.00,WSW,240,5.0,-999.0,27,-99.99,,,-99.99,,2013-05-07 03:00:00,
2013-05-06 23:21:00,69.0,34.0,-100.00,WSW,240,5.0,-999.0,27,-99.99,,,-99.99,,2013-05-07 03:21:00,
2013-05-06 23:32:00,69.0,34.0,-100.00,WSW,240,5.0,-999.0,27,-99.99,,,-99.99,,2013-05-07 03:32:00,
2013-05-06 23:42:00,69.0,34.0,-100.00,WSW,240,5.0,-999.0,27,-99.99,,,-99.99,,2013-05-07 03:42:00,
2013-05-06 23:53:00,69.0,34.0,-100.00,WSW,240,5.0,-999.0,27,-99.99,,,-99.99,,2013-05-07 03:53:00,